Conception — WYR8548 — position and weather

sailwx.info

Track history (hours):
 
Tides and Currents Weather Stations Pressure Air Temp Water Temp Dewpoint Dewpoint Depression Visibility Wind Speed Wind Dir Waves Ship Positions

Conception

Owner: TRUTH AQUATICS, SANTA BARBARA, CA. More information available from US FCC via Universal Licensing System and Coast Guard Vessel Documentation Center.

Last reported at 2017-Sep-22 01:14 UTC. Time now 2017-Sep-22 20:46 UTC.
Position N 34°24' W 119°41'.

Length 24 m.

Type: Diving. MMSI: 367098480.

Date/timePositionNaut miles runAvg speedWind from/ knotsBaromVisibWave heightAir tempDewpointWater temp
2017-Sep-22 01:14N 34°24' W 119°41'0 0.0
2017-Sep-22 00:10N 34°24' W 119°42'1 6.2
2017-Sep-21 23:57N 34°24' W 119°40'6 8.8
2017-Sep-21 23:19N 34°19' W 119°37'7 8.8
2017-Sep-21 22:31N 34°12' W 119°36'0 7.9
2017-Sep-21 22:29N 34°12' W 119°36'5 8.6
2017-Sep-21 21:52N 34°07' W 119°34'3 7.1
2017-Sep-21 21:27N 34°04' W 119°32'18 2.8
2017-Sep-21 14:54N 33°56' W 119°52'410.0
2017-Sep-21 14:30N 33°56' W 119°57'1 0.1
2017-Sep-20 21:03N 33°56' W 119°58'1 8.2
2017-Sep-20 20:58N 33°57' W 119°58'4 8.4
2017-Sep-20 20:29N 34°00' W 120°00'2 4.4
2017-Sep-20 20:00N 34°00' W 120°03'0 0.0
2017-Sep-20 19:30N 34°00' W 120°03'0 0.0
2017-Sep-20 19:00N 34°00' W 120°03'0 0.0
2017-Sep-20 18:24N 34°00' W 120°03'0 0.0
2017-Sep-20 17:54N 34°00' W 120°03'0 0.0
2017-Sep-20 17:30N 34°00' W 120°03'0 0.0
2017-Sep-20 16:57N 34°00' W 120°03'0 0.0
2017-Sep-20 16:24N 34°00' W 120°03'0 0.1
2017-Sep-20 15:51N 34°00' W 120°03'0 0.0
2017-Sep-20 15:27N 34°00' W 120°03'0 0.0
2017-Sep-20 14:54N 34°00' W 120°03'2 2.6
2017-Sep-20 14:00N 33°60' W 119°60'510.5
2017-Sep-20 13:29N 34°04' W 119°56'5 9.9
2017-Sep-20 12:59N 34°08' W 119°52'510.1
2017-Sep-20 12:30N 34°12' W 119°49'510.0
2017-Sep-20 12:00N 34°17' W 119°46'610.0
2017-Sep-20 11:22N 34°22' W 119°42'2 4.0
2017-Sep-20 10:45N 34°24' W 119°41'0 0.0
2017-Sep-20 08:09N 34°24' W 119°41'0 0.0
2017-Sep-20 06:24N 34°24' W 119°41'0 0.0
2017-Sep-20 02:36N 34°24' W 119°41'0 0.0
2017-Sep-20 02:24N 34°24' W 119°41'0 0.0
2017-Sep-19 19:08N 34°24' W 119°41'0 0.0
2017-Sep-19 18:41N 34°24' W 119°41'0 0.0
2017-Sep-19 16:20N 34°24' W 119°41'0 0.0
2017-Sep-19 14:59N 34°24' W 119°41'0 0.0
2017-Sep-19 12:23N 34°24' W 119°41'0 0.0
2017-Sep-19 11:23N 34°24' W 119°41'0 0.0
2017-Sep-19 09:53N 34°24' W 119°41'0 0.0
2017-Sep-19 06:46N 34°24' W 119°41'0 0.0
2017-Sep-19 04:22N 34°24' W 119°41'0 0.0
2017-Sep-18 19:22N 34°24' W 119°41'0 0.0
2017-Sep-18 15:34N 34°24' W 119°41'0 0.0
2017-Sep-18 13:55N 34°24' W 119°41'0 0.0
2017-Sep-18 09:46N 34°24' W 119°41'0 0.0
2017-Sep-17 19:01N 34°24' W 119°41'0 0.0
2017-Sep-17 18:49N 34°24' W 119°41'0 0.0
2017-Sep-17 18:07N 34°24' W 119°41'0 0.0
2017-Sep-17 15:22N 34°24' W 119°41'0 0.0
2017-Sep-17 14:43N 34°24' W 119°41'0 0.0
2017-Sep-17 07:01N 34°24' W 119°41'0 0.0
2017-Sep-17 06:43N 34°24' W 119°41'0 0.0
2017-Sep-17 03:52N 34°24' W 119°41'0 0.0
2017-Sep-17 00:45N 34°24' W 119°42'2 6.0
2017-Sep-17 00:22N 34°22' W 119°42'410.4
2017-Sep-16 23:59N 34°18' W 119°43'3 5.6
2017-Sep-16 23:29N 34°16' W 119°41'4 6.7
2017-Sep-16 22:54N 34°13' W 119°43'4 9.5
2017-Sep-16 22:30N 34°09' W 119°44'3 6.2
2017-Sep-16 21:59N 34°06' W 119°45'3 5.0
2017-Sep-16 21:28N 34°03' W 119°45'0 0.0
2017-Sep-16 20:55N 34°03' W 119°45'0 0.0
2017-Sep-16 20:25N 34°03' W 119°45'0 0.0
2017-Sep-16 19:58N 34°03' W 119°45'0 0.0
2017-Sep-16 19:22N 34°03' W 119°45'0 0.0
2017-Sep-16 18:40N 34°03' W 119°45'0 0.0
2017-Sep-16 18:28N 34°03' W 119°45'0 0.0
2017-Sep-16 17:31N 34°03' W 119°45'0 0.0
2017-Sep-16 16:37N 34°03' W 119°45'0 0.0
2017-Sep-16 16:25N 34°03' W 119°45'0 0.0
2017-Sep-16 15:58N 34°03' W 119°45'0 0.0
2017-Sep-16 15:25N 34°03' W 119°45'0 0.4
2017-Sep-16 14:58N 34°03' W 119°45'5 9.4
2017-Sep-16 14:29N 34°03' W 119°40'5 9.5
2017-Sep-16 14:00N 34°03' W 119°34'4 0.3
2017-Sep-16 01:26N 34°02' W 119°30'4 9.3
2017-Sep-16 00:58N 34°01' W 119°25'2 5.1
2017-Sep-16 00:30N 34°01' W 119°22'0 0.0
2017-Sep-16 00:00N 34°01' W 119°22'0 0.0
2017-Sep-15 23:30N 34°01' W 119°22'0 0.0
2017-Sep-15 23:00N 34°01' W 119°22'0 0.7
2017-Sep-15 22:26N 34°01' W 119°23'0 0.0
2017-Sep-15 21:59N 34°01' W 119°23'0 0.0
2017-Sep-15 21:26N 34°01' W 119°23'0 0.0
2017-Sep-15 20:59N 34°01' W 119°23'0 0.0
2017-Sep-15 20:26N 34°01' W 119°23'1 2.1
2017-Sep-15 20:00N 34°01' W 119°22'0 0.4
2017-Sep-15 19:24N 34°01' W 119°22'0 0.0
2017-Sep-15 19:00N 34°01' W 119°22'0 0.0
2017-Sep-15 18:30N 34°01' W 119°22'0 0.0
2017-Sep-15 18:00N 34°01' W 119°22'0 0.0
2017-Sep-15 17:30N 34°01' W 119°22'0 0.0
2017-Sep-15 16:57N 34°01' W 119°22'0 0.0
2017-Sep-15 16:27N 34°01' W 119°22'0 0.0
2017-Sep-15 16:00N 34°01' W 119°22'0 0.0
2017-Sep-15 15:30N 34°01' W 119°22'0 0.0
2017-Sep-15 15:00N 34°01' W 119°22'0 0.0
2017-Sep-15 14:30N 34°01' W 119°22'0 0.1
2017-Sep-15 13:58N 34°01' W 119°22'1 2.4
2017-Sep-15 13:29N 34°01' W 119°23'2 4.9
2017-Sep-15 13:00N 33°60' W 119°21'5 9.3
2017-Sep-15 12:30N 33°56' W 119°19'5 9.9
2017-Sep-15 12:00N 33°51' W 119°16'510.1
2017-Sep-15 11:30N 33°46' W 119°14'5 9.9
2017-Sep-15 11:00N 33°42' W 119°12'5 9.4
2017-Sep-15 10:30N 33°38' W 119°09'5 9.3
2017-Sep-15 09:57N 33°34' W 119°05'5 0.4
2017-Sep-14 19:41N 33°29' W 119°02'0 0.0
2017-Sep-14 19:29N 33°29' W 119°02'0 0.0
2017-Sep-14 18:35N 33°29' W 119°02'0 0.0
2017-Sep-14 18:29N 33°29' W 119°02'0 0.0
2017-Sep-14 17:47N 33°29' W 119°02'0 0.0
2017-Sep-14 17:17N 33°29' W 119°02'0 0.0
2017-Sep-14 16:50N 33°29' W 119°02'0 0.0
2017-Sep-14 16:29N 33°29' W 119°02'6 3.0
2017-Sep-14 14:36N 33°34' W 119°04'110.4
2017-Sep-14 14:29N 33°36' W 119°05'10 9.9
2017-Sep-14 13:28N 33°45' W 119°10'4 9.6
2017-Sep-14 13:00N 33°49' W 119°13'5 9.7
2017-Sep-14 12:30N 33°53' W 119°15'5 9.9
2017-Sep-14 12:00N 33°57' W 119°18'510.2
2017-Sep-14 11:30N 34°02' W 119°21'5 9.6
2017-Sep-14 11:01N 34°05' W 119°25'5 9.7
2017-Sep-14 10:30N 34°09' W 119°28'5 9.9
2017-Sep-14 09:59N 34°13' W 119°32'5 9.9
2017-Sep-14 09:29N 34°17' W 119°36'9 7.2
2017-Sep-14 08:16N 34°24' W 119°41'0 0.0
2017-Sep-14 06:49N 34°24' W 119°41'0 0.0
2017-Sep-14 04:16N 34°24' W 119°41'0 0.0
2017-Sep-14 03:55N 34°24' W 119°41'0 0.0
2017-Sep-13 07:52N 34°24' W 119°41'0 0.0
2017-Sep-13 05:45N 34°24' W 119°41'0 0.0
2017-Sep-13 05:18N 34°24' W 119°41'0 0.0
2017-Sep-13 00:21N 34°24' W 119°41'4 4.1
2017-Sep-12 23:16N 34°20' W 119°40'310.0
2017-Sep-12 22:58N 34°17' W 119°40'5 9.9
2017-Sep-12 22:27N 34°12' W 119°39'3 4.9
2017-Sep-12 21:47N 34°09' W 119°42'3 9.7
2017-Sep-12 21:30N 34°07' W 119°42'5 8.6
2017-Sep-12 20:58N 34°02' W 119°42'0 0.1
2017-Sep-12 17:22N 34°02' W 119°42'1 3.3
2017-Sep-12 17:00N 34°03' W 119°43'510.0
2017-Sep-12 16:30N 34°04' W 119°49'2 3.8
2017-Sep-12 15:59N 34°04' W 119°52'0 0.2
2017-Sep-12 15:30N 34°04' W 119°52'2 3.4
2017-Sep-12 15:00N 34°04' W 119°54'4 6.9
2017-Sep-12 14:23N 34°04' W 119°59'4 9.4
2017-Sep-12 14:00N 34°01' W 120°02'1 1.1
2017-Sep-12 13:30N 34°01' W 120°03'0 0.0
2017-Sep-12 12:57N 34°01' W 120°03'0 0.0
2017-Sep-12 12:30N 34°01' W 120°03'0 0.0
2017-Sep-12 11:54N 34°01' W 120°03'0 0.0
2017-Sep-12 11:30N 34°01' W 120°03'0 0.0
2017-Sep-12 10:57N 34°01' W 120°03'0 0.0
2017-Sep-12 10:24N 34°01' W 120°03'0 0.0
2017-Sep-12 10:00N 34°01' W 120°03'0 0.0
2017-Sep-12 09:27N 34°01' W 120°03'0 0.0
2017-Sep-12 09:00N 34°01' W 120°03'0 0.0
2017-Sep-12 08:27N 34°01' W 120°03'0 0.0
2017-Sep-12 08:00N 34°01' W 120°03'0 0.1
2017-Sep-12 07:30N 34°01' W 120°03'0 0.0
2017-Sep-12 07:00N 34°01' W 120°03'0 0.0
2017-Sep-12 06:30N 34°01' W 120°03'0 0.1
2017-Sep-12 05:57N 34°01' W 120°03'0 0.0
2017-Sep-12 05:30N 34°01' W 120°03'0 0.0
2017-Sep-12 05:00N 34°01' W 120°03'0 0.0
2017-Sep-12 04:27N 34°01' W 120°03'0 0.0
2017-Sep-12 03:51N 34°01' W 120°03'0 0.1
2017-Sep-12 03:30N 34°01' W 120°03'0 0.0
2017-Sep-12 03:00N 34°01' W 120°03'0 0.1
2017-Sep-12 02:30N 34°01' W 120°03'0 0.1
2017-Sep-12 02:00N 34°01' W 120°03'  
Track history (hours):
 
Tides and Currents Weather Stations Pressure Air Temp Water Temp Dewpoint Dewpoint Depression Visibility Wind Speed Wind Dir Waves Ship Positions

Conception

Owner: TRUTH AQUATICS, SANTA BARBARA, CA. More information available from US FCC via Universal Licensing System and Coast Guard Vessel Documentation Center.

Last reported at 2017-Sep-22 01:14 UTC. Time now 2017-Sep-22 20:46 UTC.
Position N 34°24' W 119°41'.

Length 24 m.

Type: Diving. MMSI: 367098480.

Date/timePositionNaut miles runAvg speedWind from/ knotsBaromVisibWave heightAir tempDewpointWater temp
2017-Sep-22 01:14N 34°24' W 119°41'0 0.0
2017-Sep-22 00:10N 34°24' W 119°42'1 6.2
2017-Sep-21 23:57N 34°24' W 119°40'6 8.8
2017-Sep-21 23:19N 34°19' W 119°37'7 8.8
2017-Sep-21 22:31N 34°12' W 119°36'0 7.9
2017-Sep-21 22:29N 34°12' W 119°36'5 8.6
2017-Sep-21 21:52N 34°07' W 119°34'3 7.1
2017-Sep-21 21:27N 34°04' W 119°32'18 2.8
2017-Sep-21 14:54N 33°56' W 119°52'410.0
2017-Sep-21 14:30N 33°56' W 119°57'1 0.1
2017-Sep-20 21:03N 33°56' W 119°58'1 8.2
2017-Sep-20 20:58N 33°57' W 119°58'4 8.4
2017-Sep-20 20:29N 34°00' W 120°00'2 4.4
2017-Sep-20 20:00N 34°00' W 120°03'0 0.0
2017-Sep-20 19:30N 34°00' W 120°03'0 0.0
2017-Sep-20 19:00N 34°00' W 120°03'0 0.0
2017-Sep-20 18:24N 34°00' W 120°03'0 0.0
2017-Sep-20 17:54N 34°00' W 120°03'0 0.0
2017-Sep-20 17:30N 34°00' W 120°03'0 0.0
2017-Sep-20 16:57N 34°00' W 120°03'0 0.0
2017-Sep-20 16:24N 34°00' W 120°03'0 0.1
2017-Sep-20 15:51N 34°00' W 120°03'0 0.0
2017-Sep-20 15:27N 34°00' W 120°03'0 0.0
2017-Sep-20 14:54N 34°00' W 120°03'2 2.6
2017-Sep-20 14:00N 33°60' W 119°60'510.5
2017-Sep-20 13:29N 34°04' W 119°56'5 9.9
2017-Sep-20 12:59N 34°08' W 119°52'510.1
2017-Sep-20 12:30N 34°12' W 119°49'510.0
2017-Sep-20 12:00N 34°17' W 119°46'610.0
2017-Sep-20 11:22N 34°22' W 119°42'2 4.0
2017-Sep-20 10:45N 34°24' W 119°41'0 0.0
2017-Sep-20 08:09N 34°24' W 119°41'0 0.0
2017-Sep-20 06:24N 34°24' W 119°41'0 0.0
2017-Sep-20 02:36N 34°24' W 119°41'0 0.0
2017-Sep-20 02:24N 34°24' W 119°41'0 0.0
2017-Sep-19 19:08N 34°24' W 119°41'0 0.0
2017-Sep-19 18:41N 34°24' W 119°41'0 0.0
2017-Sep-19 16:20N 34°24' W 119°41'0 0.0
2017-Sep-19 14:59N 34°24' W 119°41'0 0.0
2017-Sep-19 12:23N 34°24' W 119°41'0 0.0
2017-Sep-19 11:23N 34°24' W 119°41'0 0.0
2017-Sep-19 09:53N 34°24' W 119°41'0 0.0
2017-Sep-19 06:46N 34°24' W 119°41'0 0.0
2017-Sep-19 04:22N 34°24' W 119°41'0 0.0
2017-Sep-18 19:22N 34°24' W 119°41'0 0.0
2017-Sep-18 15:34N 34°24' W 119°41'0 0.0
2017-Sep-18 13:55N 34°24' W 119°41'0 0.0
2017-Sep-18 09:46N 34°24' W 119°41'0 0.0
2017-Sep-17 19:01N 34°24' W 119°41'0 0.0
2017-Sep-17 18:49N 34°24' W 119°41'0 0.0
2017-Sep-17 18:07N 34°24' W 119°41'0 0.0
2017-Sep-17 15:22N 34°24' W 119°41'0 0.0
2017-Sep-17 14:43N 34°24' W 119°41'0 0.0
2017-Sep-17 07:01N 34°24' W 119°41'0 0.0
2017-Sep-17 06:43N 34°24' W 119°41'0 0.0
2017-Sep-17 03:52N 34°24' W 119°41'0 0.0
2017-Sep-17 00:45N 34°24' W 119°42'2 6.0
2017-Sep-17 00:22N 34°22' W 119°42'410.4
2017-Sep-16 23:59N 34°18' W 119°43'3 5.6
2017-Sep-16 23:29N 34°16' W 119°41'4 6.7
2017-Sep-16 22:54N 34°13' W 119°43'4 9.5
2017-Sep-16 22:30N 34°09' W 119°44'3 6.2
2017-Sep-16 21:59N 34°06' W 119°45'3 5.0
2017-Sep-16 21:28N 34°03' W 119°45'0 0.0
2017-Sep-16 20:55N 34°03' W 119°45'0 0.0
2017-Sep-16 20:25N 34°03' W 119°45'0 0.0
2017-Sep-16 19:58N 34°03' W 119°45'0 0.0
2017-Sep-16 19:22N 34°03' W 119°45'0 0.0
2017-Sep-16 18:40N 34°03' W 119°45'0 0.0
2017-Sep-16 18:28N 34°03' W 119°45'0 0.0
2017-Sep-16 17:31N 34°03' W 119°45'0 0.0
2017-Sep-16 16:37N 34°03' W 119°45'0 0.0
2017-Sep-16 16:25N 34°03' W 119°45'0 0.0
2017-Sep-16 15:58N 34°03' W 119°45'0 0.0
2017-Sep-16 15:25N 34°03' W 119°45'0 0.4
2017-Sep-16 14:58N 34°03' W 119°45'5 9.4
2017-Sep-16 14:29N 34°03' W 119°40'5 9.5
2017-Sep-16 14:00N 34°03' W 119°34'4 0.3
2017-Sep-16 01:26N 34°02' W 119°30'4 9.3
2017-Sep-16 00:58N 34°01' W 119°25'2 5.1
2017-Sep-16 00:30N 34°01' W 119°22'0 0.0
2017-Sep-16 00:00N 34°01' W 119°22'0 0.0
2017-Sep-15 23:30N 34°01' W 119°22'0 0.0
2017-Sep-15 23:00N 34°01' W 119°22'0 0.7
2017-Sep-15 22:26N 34°01' W 119°23'0 0.0
2017-Sep-15 21:59N 34°01' W 119°23'0 0.0
2017-Sep-15 21:26N 34°01' W 119°23'0 0.0
2017-Sep-15 20:59N 34°01' W 119°23'0 0.0
2017-Sep-15 20:26N 34°01' W 119°23'1 2.1
2017-Sep-15 20:00N 34°01' W 119°22'0 0.4
2017-Sep-15 19:24N 34°01' W 119°22'0 0.0
2017-Sep-15 19:00N 34°01' W 119°22'0 0.0
2017-Sep-15 18:30N 34°01' W 119°22'0 0.0
2017-Sep-15 18:00N 34°01' W 119°22'0 0.0
2017-Sep-15 17:30N 34°01' W 119°22'0 0.0
2017-Sep-15 16:57N 34°01' W 119°22'0 0.0
2017-Sep-15 16:27N 34°01' W 119°22'0 0.0
2017-Sep-15 16:00N 34°01' W 119°22'0 0.0
2017-Sep-15 15:30N 34°01' W 119°22'0 0.0
2017-Sep-15 15:00N 34°01' W 119°22'0 0.0
2017-Sep-15 14:30N 34°01' W 119°22'0 0.1
2017-Sep-15 13:58N 34°01' W 119°22'1 2.4
2017-Sep-15 13:29N 34°01' W 119°23'2 4.9
2017-Sep-15 13:00N 33°60' W 119°21'5 9.3
2017-Sep-15 12:30N 33°56' W 119°19'5 9.9
2017-Sep-15 12:00N 33°51' W 119°16'510.1
2017-Sep-15 11:30N 33°46' W 119°14'5 9.9
2017-Sep-15 11:00N 33°42' W 119°12'5 9.4
2017-Sep-15 10:30N 33°38' W 119°09'5 9.3
2017-Sep-15 09:57N 33°34' W 119°05'5 0.4
2017-Sep-14 19:41N 33°29' W 119°02'0 0.0
2017-Sep-14 19:29N 33°29' W 119°02'0 0.0
2017-Sep-14 18:35N 33°29' W 119°02'0 0.0
2017-Sep-14 18:29N 33°29' W 119°02'0 0.0
2017-Sep-14 17:47N 33°29' W 119°02'0 0.0
2017-Sep-14 17:17N 33°29' W 119°02'0 0.0
2017-Sep-14 16:50N 33°29' W 119°02'0 0.0
2017-Sep-14 16:29N 33°29' W 119°02'6 3.0
2017-Sep-14 14:36N 33°34' W 119°04'110.4
2017-Sep-14 14:29N 33°36' W 119°05'10 9.9
2017-Sep-14 13:28N 33°45' W 119°10'4 9.6
2017-Sep-14 13:00N 33°49' W 119°13'5 9.7
2017-Sep-14 12:30N 33°53' W 119°15'5 9.9
2017-Sep-14 12:00N 33°57' W 119°18'510.2
2017-Sep-14 11:30N 34°02' W 119°21'5 9.6
2017-Sep-14 11:01N 34°05' W 119°25'5 9.7
2017-Sep-14 10:30N 34°09' W 119°28'5 9.9
2017-Sep-14 09:59N 34°13' W 119°32'5 9.9
2017-Sep-14 09:29N 34°17' W 119°36'9 7.2
2017-Sep-14 08:16N 34°24' W 119°41'0 0.0
2017-Sep-14 06:49N 34°24' W 119°41'0 0.0
2017-Sep-14 04:16N 34°24' W 119°41'0 0.0
2017-Sep-14 03:55N 34°24' W 119°41'0 0.0
2017-Sep-13 07:52N 34°24' W 119°41'0 0.0
2017-Sep-13 05:45N 34°24' W 119°41'0 0.0
2017-Sep-13 05:18N 34°24' W 119°41'0 0.0
2017-Sep-13 00:21N 34°24' W 119°41'4 4.1
2017-Sep-12 23:16N 34°20' W 119°40'310.0
2017-Sep-12 22:58N 34°17' W 119°40'5 9.9
2017-Sep-12 22:27N 34°12' W 119°39'3 4.9
2017-Sep-12 21:47N 34°09' W 119°42'3 9.7
2017-Sep-12 21:30N 34°07' W 119°42'5 8.6
2017-Sep-12 20:58N 34°02' W 119°42'0 0.1
2017-Sep-12 17:22N 34°02' W 119°42'1 3.3
2017-Sep-12 17:00N 34°03' W 119°43'510.0
2017-Sep-12 16:30N 34°04' W 119°49'2 3.8
2017-Sep-12 15:59N 34°04' W 119°52'0 0.2
2017-Sep-12 15:30N 34°04' W 119°52'2 3.4
2017-Sep-12 15:00N 34°04' W 119°54'4 6.9
2017-Sep-12 14:23N 34°04' W 119°59'4 9.4
2017-Sep-12 14:00N 34°01' W 120°02'1 1.1
2017-Sep-12 13:30N 34°01' W 120°03'0 0.0
2017-Sep-12 12:57N 34°01' W 120°03'0 0.0
2017-Sep-12 12:30N 34°01' W 120°03'0 0.0
2017-Sep-12 11:54N 34°01' W 120°03'0 0.0
2017-Sep-12 11:30N 34°01' W 120°03'0 0.0
2017-Sep-12 10:57N 34°01' W 120°03'0 0.0
2017-Sep-12 10:24N 34°01' W 120°03'0 0.0
2017-Sep-12 10:00N 34°01' W 120°03'0 0.0
2017-Sep-12 09:27N 34°01' W 120°03'0 0.0
2017-Sep-12 09:00N 34°01' W 120°03'0 0.0
2017-Sep-12 08:27N 34°01' W 120°03'0 0.0
2017-Sep-12 08:00N 34°01' W 120°03'0 0.1
2017-Sep-12 07:30N 34°01' W 120°03'0 0.0
2017-Sep-12 07:00N 34°01' W 120°03'0 0.0
2017-Sep-12 06:30N 34°01' W 120°03'0 0.1
2017-Sep-12 05:57N 34°01' W 120°03'0 0.0
2017-Sep-12 05:30N 34°01' W 120°03'0 0.0
2017-Sep-12 05:00N 34°01' W 120°03'0 0.0
2017-Sep-12 04:27N 34°01' W 120°03'0 0.0
2017-Sep-12 03:51N 34°01' W 120°03'0 0.1
2017-Sep-12 03:30N 34°01' W 120°03'0 0.0
2017-Sep-12 03:00N 34°01' W 120°03'0 0.1
2017-Sep-12 02:30N 34°01' W 120°03'0 0.1
2017-Sep-12 02:00N 34°01' W 120°03'  

Dump ship's entire track history